MOOI WEER BOXTEL

Weerstation in Boxtel

Actuele weerinformatie en voorspellingen


Onweer radar Meer informatie blitzortung!


Regen radar Meer informatie rain snow radar


Meer informatie

Template documentation
and downloads

Weblog Hans on Experience

Profiel Hans Mestrum



Het weer levert geen direct gevaar op.    Er zijn geen waarschuwingen afgegeven.

Weather Underground Historische gegevens

Dagelijkse Samenvatting november 17, 2018 Eenheden:  Metrisch    Engels   Beide
« Vorige Dag
Volgende Dag »
Dagelijkse Wekelijkse Maandelijkse Jaarlijkse Aangepaste
  Huidig: Hoog: Laag: Gemiddeld:
Temperatuur: 4.9 °C -17.8 °C 1.9 °C 3.2 °C
Dauwpunt: 2.3 °C -17.8 °C 0.5 °C 1.4 °C
Vochtigheid: 83 % Humidity % 83 % 87 %
Wind snelheid: 0 km/h 0 km/h 0 km/h 0.3 km/h
Windvlaag: 0 km/h 0 km/h - -
Wind:Calm - - East
Luchtdruk: 1028.3 hPa 0 hPa 1026.6 hPa -
Neerslag: 0 mm      
Historical Graphs
 
 
Tabel voor november 17, 2018
Tijd Temperatuur Dauwpunt Luchtdruk Wind Wind snelheid Windvlaag Vochtigheid Regenval per uur
-17.8 °C -17.8 °C 0 hPa Calm     Humidity % 0 mm
00:04 5.1 °C 2.8 °C 1026.6 hPa Calm   3.2 km/h 85 % 0 mm
00:09 5.1 °C 2.8 °C 1026.6 hPa Calm   1.6 km/h 85 % 0 mm
00:14 5.1 °C 2.8 °C 1026.6 hPa Calm   1.6 km/h 85 % 0 mm
00:19 4.9 °C 2.6 °C 1026.6 hPa Calm     85 % 0 mm
00:24 4.8 °C 2.5 °C 1026.6 hPa Calm   1.6 km/h 85 % 0 mm
00:29 4.8 °C 2.5 °C 1026.6 hPa Calm     85 % 0 mm
00:34 4.7 °C 2.6 °C 1026.6 hPa Calm     86 % 0 mm
00:39 4.6 °C 2.5 °C 1026.6 hPa Calm   3.2 km/h 86 % 0 mm
00:42 4.6 °C 2.5 °C 1026.6 hPa Calm   3.2 km/h 86 % 0 mm
00:49 4.6 °C 2.5 °C 1026.6 hPa Calm   3.2 km/h 86 % 0 mm
00:54 4.6 °C 2.5 °C 1026.6 hPa Calm   1.6 km/h 86 % 0 mm
00:59 4.5 °C 2.4 °C 1026.6 hPa Calm   1.6 km/h 86 % 0 mm
01:04 4.5 °C 2.4 °C 1026.6 hPa Calm   1.6 km/h 86 % 0 mm
01:09 4.4 °C 2.3 °C 1026.6 hPa Calm   3.2 km/h 86 % 0 mm
01:14 4.4 °C 2.4 °C 1026.6 hPa Calm   8 km/h 87 % 0 mm
01:19 4.4 °C 2.4 °C 1026.6 hPa NNE 3.2 km/h 3.2 km/h 87 % 0 mm
01:24 4.4 °C 2.4 °C 1027 hPa NNE 3.2 km/h 3.2 km/h 87 % 0 mm
01:29 4.4 °C 2.4 °C 1027 hPa Calm   4.8 km/h 87 % 0 mm
01:34 4.4 °C 2.4 °C 1027 hPa Calm   4.8 km/h 87 % 0 mm
01:39 4.4 °C 2.4 °C 1027 hPa Calm   1.6 km/h 87 % 0 mm
01:44 4.4 °C 2.4 °C 1027 hPa Calm   4.8 km/h 87 % 0 mm
01:49 4.4 °C 2.4 °C 1027 hPa Calm   1.6 km/h 87 % 0 mm
01:54 4.4 °C 2.4 °C 1027 hPa NE 3.2 km/h 3.2 km/h 87 % 0 mm
01:59 4.4 °C 2.6 °C 1027 hPa Calm     88 % 0 mm
02:04 4.4 °C 2.6 °C 1027 hPa Calm   1.6 km/h 88 % 0 mm
02:09 4.4 °C 2.4 °C 1027 hPa West 1.8 km/h 3.2 km/h 87 % 0 mm
02:14 4.6 °C 2.6 °C 1027 hPa Calm   8 km/h 87 % 0 mm
02:19 4.6 °C 2.6 °C 1027 hPa Calm   4.8 km/h 87 % 0 mm
02:24 4.5 °C 2.4 °C 1027 hPa Calm   1.6 km/h 86 % 0 mm
02:29 4.4 °C 2.4 °C 1027 hPa Calm   6.4 km/h 87 % 0 mm
02:34 4.3 °C 2.3 °C 1027 hPa East 1.8 km/h 4.8 km/h 87 % 0 mm
02:39 4.3 °C 2.3 °C 1027 hPa Calm   3.2 km/h 87 % 0 mm
02:44 4.2 °C 2.2 °C 1027 hPa Calm     87 % 0 mm
02:49 4.2 °C 2.2 °C 1027 hPa Calm   1.6 km/h 87 % 0 mm
02:54 4.2 °C 2.2 °C 1027.3 hPa Calm   1.6 km/h 87 % 0 mm
02:59 4.2 °C 2.2 °C 1027.3 hPa Calm     87 % 0 mm
03:03 4.1 °C 2.1 °C 1027.3 hPa Calm     87 % 0 mm
03:09 4 °C 2 °C 1027.3 hPa Calm     87 % 0 mm
03:14 3.9 °C 1.9 °C 1027.3 hPa Calm   1.6 km/h 87 % 0 mm
03:19 3.8 °C 1.8 °C 1027.3 hPa Calm   1.6 km/h 87 % 0 mm
03:24 3.8 °C 1.8 °C 1027.3 hPa Calm   1.6 km/h 87 % 0 mm
03:29 3.8 °C 1.8 °C 1027.3 hPa Calm   3.2 km/h 87 % 0 mm
03:34 3.7 °C 1.7 °C 1027 hPa East 1.8 km/h 1.6 km/h 87 % 0 mm
03:39 3.7 °C 1.7 °C 1027.3 hPa Calm   1.6 km/h 87 % 0 mm
03:44 3.7 °C 1.7 °C 1027 hPa Calm   4.8 km/h 87 % 0 mm
03:49 3.7 °C 1.7 °C 1027.3 hPa Calm     87 % 0 mm
03:54 3.7 °C 1.7 °C 1027 hPa Calm   1.6 km/h 87 % 0 mm
03:59 3.6 °C 1.6 °C 1027 hPa Calm   1.6 km/h 87 % 0 mm
04:04 3.5 °C 1.5 °C 1027 hPa Calm   1.6 km/h 87 % 0 mm
04:09 3.4 °C 1.4 °C 1027.3 hPa Calm   3.2 km/h 87 % 0 mm
04:14 3.4 °C 1.4 °C 1027.3 hPa Calm   1.6 km/h 87 % 0 mm
04:19 3.3 °C 1.3 °C 1027 hPa Calm     87 % 0 mm
04:24 3.2 °C 1.4 °C 1027 hPa Calm   1.6 km/h 88 % 0 mm
04:29 3.2 °C 1.4 °C 1027 hPa Calm     88 % 0 mm
04:34 3.1 °C 1.3 °C 1027.3 hPa Calm   1.6 km/h 88 % 0 mm
04:39 3.1 °C 1.3 °C 1027.3 hPa Calm   3.2 km/h 88 % 0 mm
04:41 3.1 °C 1.3 °C 1027.3 hPa Calm   1.6 km/h 88 % 0 mm
04:49 3 °C 1.2 °C 1027.3 hPa Calm   1.6 km/h 88 % 0 mm
04:54 2.9 °C 1.1 °C 1027 hPa Calm     88 % 0 mm
04:59 2.9 °C 1.3 °C 1027.3 hPa Calm   1.6 km/h 89 % 0 mm
05:04 2.9 °C 1.3 °C 1027.3 hPa Calm   3.2 km/h 89 % 0 mm
05:09 2.9 °C 1.1 °C 1027.3 hPa Calm   1.6 km/h 88 % 0 mm
05:14 2.9 °C 1.1 °C 1027.3 hPa Calm     88 % 0 mm
05:19 2.9 °C 1.1 °C 1027.3 hPa Calm     88 % 0 mm
05:24 2.9 °C 1.3 °C 1027.3 hPa Calm   4.8 km/h 89 % 0 mm
05:27 2.9 °C 1.3 °C 1027.3 hPa Calm   3.2 km/h 89 % 0 mm
05:34 2.9 °C 1.1 °C 1027.3 hPa Calm   3.2 km/h 88 % 0 mm
05:39 2.9 °C 1.1 °C 1027.3 hPa Calm   4.8 km/h 88 % 0 mm
05:44 2.8 °C 1 °C 1027.3 hPa Calm   1.6 km/h 88 % 0 mm
05:48 2.8 °C 1 °C 1027.3 hPa Calm   1.6 km/h 88 % 0 mm
05:54 2.7 °C 0.9 °C 1027.3 hPa Calm   6.4 km/h 88 % 0 mm
05:59 2.7 °C 1.1 °C 1027.3 hPa Calm   3.2 km/h 89 % 0 mm
06:04 2.6 °C 1 °C 1027.3 hPa Calm   6.4 km/h 89 % 0 mm
06:09 2.6 °C 1 °C 1027 hPa Calm   1.6 km/h 89 % 0 mm
06:14 2.5 °C 0.9 °C 1027.3 hPa Calm   1.6 km/h 89 % 0 mm
06:19 2.4 °C 0.8 °C 1027.3 hPa Calm   3.2 km/h 89 % 0 mm
06:24 2.5 °C 0.9 °C 1027.3 hPa ENE 1.8 km/h 1.6 km/h 89 % 0 mm
06:28 2.5 °C 0.9 °C 1027.3 hPa Calm     89 % 0 mm
06:34 2.4 °C 0.8 °C 1027.3 hPa Calm   1.6 km/h 89 % 0 mm
06:39 2.5 °C 1 °C 1027.3 hPa Calm   3.2 km/h 90 % 0 mm
06:44 2.6 °C 1 °C 1027.3 hPa Calm   1.6 km/h 89 % 0 mm
06:49 2.6 °C 1 °C 1027.3 hPa Calm   1.6 km/h 89 % 0 mm
06:54 2.4 °C 0.8 °C 1027.3 hPa Calm     89 % 0 mm
06:58 2.3 °C 0.7 °C 1027.3 hPa Calm     89 % 0 mm
07:04 2.2 °C 0.6 °C 1027.3 hPa SSE 1.8 km/h 1.6 km/h 89 % 0 mm
07:09 2.3 °C 0.7 °C 1027.3 hPa Calm   1.6 km/h 89 % 0 mm
07:14 2.2 °C 0.6 °C 1027.3 hPa Calm   1.6 km/h 89 % 0 mm
07:19 2.2 °C 0.7 °C 1027.7 hPa Calm   4.8 km/h 90 % 0 mm
07:23 2.2 °C 0.7 °C 1027.7 hPa Calm   6.4 km/h 90 % 0 mm
07:29 2.3 °C 0.8 °C 1027.7 hPa Calm   3.2 km/h 90 % 0 mm
07:34 2.2 °C 0.6 °C 1027.7 hPa Calm   3.2 km/h 89 % 0 mm
07:39 2.2 °C 0.7 °C 1027.7 hPa Calm   1.6 km/h 90 % 0 mm
07:44 2.2 °C 0.7 °C 1027.7 hPa Calm   1.6 km/h 90 % 0 mm
07:49 2.1 °C 0.6 °C 1027.7 hPa Calm     90 % 0 mm
07:54 2 °C 0.5 °C 1027.7 hPa NE 1.8 km/h 1.6 km/h 90 % 0 mm
07:59 2 °C 0.5 °C 1027.7 hPa Calm   4.8 km/h 90 % 0 mm
08:04 2 °C 0.5 °C 1027.7 hPa ENE 3.2 km/h 3.2 km/h 90 % 0 mm
08:09 2 °C 0.7 °C 1027.7 hPa Calm   3.2 km/h 91 % 0 mm
08:14 1.9 °C 0.6 °C 1027.7 hPa Calm   1.6 km/h 91 % 0 mm
08:19 1.9 °C 0.6 °C 1027.7 hPa Calm   1.6 km/h 91 % 0 mm
08:23 1.9 °C 0.6 °C 1028 hPa Calm     91 % 0 mm
08:28 1.9 °C 0.6 °C 1028 hPa ENE 1.8 km/h 1.6 km/h 91 % 0 mm
08:34 1.9 °C 0.6 °C 1028 hPa Calm   1.6 km/h 91 % 0 mm
08:39 2 °C 0.7 °C 1028 hPa Calm     91 % 0 mm
08:44 2 °C 0.7 °C 1028 hPa Calm     91 % 0 mm
08:49 2.1 °C 0.8 °C 1028 hPa Calm   3.2 km/h 91 % 0 mm
08:54 2.1 °C 0.8 °C 1028 hPa Calm   1.6 km/h 91 % 0 mm
08:59 2.1 °C 0.8 °C 1028 hPa Calm   1.6 km/h 91 % 0 mm
09:04 2.2 °C 0.9 °C 1028 hPa Calm   1.6 km/h 91 % 0 mm
09:09 2.4 °C 1.1 °C 1028 hPa Calm   6.4 km/h 91 % 0 mm
09:14 2.6 °C 1.3 °C 1028 hPa Calm     91 % 0 mm
09:19 2.6 °C 1.1 °C 1028 hPa Calm   4.8 km/h 90 % 0 mm
09:24 2.7 °C 1.2 °C 1028.3 hPa Calm   8 km/h 90 % 0 mm
09:29 2.8 °C 1.2 °C 1028.3 hPa Calm     89 % 0 mm
09:34 2.9 °C 1.3 °C 1028.3 hPa NE 3.2 km/h 4.8 km/h 89 % 0 mm
09:39 3.2 °C 1.6 °C 1028.3 hPa WNW 1.8 km/h 4.8 km/h 89 % 0 mm
09:44 3.4 °C 1.6 °C 1028.3 hPa Calm   3.2 km/h 88 % 0 mm
09:49 3.6 °C 1.8 °C 1028.3 hPa Calm   4.8 km/h 88 % 0 mm
09:54 3.8 °C 1.8 °C 1028.3 hPa ENE 3.2 km/h 4.8 km/h 87 % 0 mm
09:59 3.9 °C 1.8 °C 1028.3 hPa Calm   3.2 km/h 86 % 0 mm
10:04 4.1 °C 2 °C 1028.3 hPa Calm     86 % 0 mm
10:09 4.3 °C 2 °C 1028.3 hPa Calm   1.6 km/h 85 % 0 mm
10:14 4.4 °C 2.1 °C 1028.3 hPa Calm   1.6 km/h 85 % 0 mm
10:18 4.6 °C 2.3 °C 1028.3 hPa Calm   1.6 km/h 85 % 0 mm
10:22 4.7 °C 2.2 °C 1028.3 hPa NE 1.8 km/h 3.2 km/h 84 % 0 mm
10:27 4.9 °C 2.3 °C 1028.3 hPa Calm     83 % 0 mm
Weerstation Boxtel
Gegevens verzameld door Weather Underground - 3 mb

Script ontwikkeld door  Jim McMurry - jmcmurry@mwt.net Aangepast voor de template door  Wim van der Kuil - Leuven-Template.eu

U vindt ons ook hier:

Het Weer Aktueel

UK Metoffice

European Weather Network

Weather Underground

AWEKAS

Citizen Weather Observer Program (CWOP)

HAMweather, WeatherForYou, PWS Weather

Apparatuur in gebruik:

Weerstation
Davis Vue ISS

Weerprogramma
Meteobridge

Weercomputer
Asus WL -330N3G

Webleverancier
Weerhuisje.nl

Davis Vue ISS

Meteobridge

Asus WL -330N3G

Weerhuisje.nl